Pagrindinis puslapis
METAR-TAF:

METAR-TAF

Oro uostai :

Air Force Station

Cape Canaveral, Florida, Jungtinės Amerikos Valstijos

platuma: 28-28N, ilguma: 080-33W, Aukštis: 3 m

Dabartinis oras

Ataskaita buvo paskelbta 25 minutes, ne 06:56 UTC
Vėjas 24 kt iš Vakarų/Šiaurės Vakarų su gūsio iki 35 kt
Temperatūra 16°C
Drėgmė 82%
Slėgis 1015 hPa
Matomumas: 16.1 km
Su prošvaistėmis ne aukštis 1500 ft
Su prošvaistėmis ne aukštis 2000 ft
Apsiniaukę ne aukštis 10000 ft

METAR: KXMR 270656Z AUTO 30024G35KT 10SM BKN015 BKN020 OVC100 16/13 A2998 RMK AO2 PK WND 29035/49 DZB40E53 CIG 013V100 CIG 014 RWY13 SLP155 P0000 T01590134 $

Laikas: 02:21 (07:21 UTC)


TAF: trūkstamas

Orai ataskaitas ir orų prognozės (METAR, TAF).

turimą stotys yra geltonos ir raudonos taškus žemėlapyje.

Perkelti pele per norėdami pamatyti stoties vardą.

Tada spustelėkite, norėdami matyti oro stebėjimo ir prognozės.

Norėdami pakeisti žemėlapį: spustelėkite ant žalios mygtukų su juodo kryžiaus žemyn,; žalią mygtuką su brūkšneliu, jei norite nutolinti; arba žalių rodyklių gretimoms žemėlapius.


METAR-TAF: